WetterOnline ( https://www.wetteronline.de )

Wetter aktuell Regen

Aktuelles Wetter: Zwiesel (613m)

6-stündlich | Neueste Meldungen
Ortszeit Temperatur Wetter
So, 15.09. 20:00 16.0° C leicht bewölkt
So, 15.09. 14:00 21.4° C wolkenlos
So, 15.09. 8:00 8.8° C wolkenlos
So, 15.09. 2:00 11.0° C wolkig
Sa, 14.09. 20:00 15.7° C wolkenlos
Sa, 14.09. 14:00 21.5° C wolkig
Sa, 14.09. 8:00 14.4° C bewölkt
Sa, 14.09. 2:00 12.8° C bewölkt
Ortszeit Temperatur Wetter
So, 15.09. 22:00 12.9° C fast wolkenlos
So, 15.09. 21:50 12.9° C fast wolkenlos
So, 15.09. 21:40 13.4° C leicht bewölkt
So, 15.09. 21:30 13.5° C wolkig
So, 15.09. 21:20 13.5° C wolkig
So, 15.09. 21:10 13.8° C wolkig
So, 15.09. 21:00 14.3° C wolkig
So, 15.09. 20:30 15.1° C fast wolkenlos
So, 15.09. 20:00 16.0° C leicht bewölkt
So, 15.09. 19:30 17.9° C wolkenlos
So, 15.09. 19:00 20.7° C wolkenlos
Ortszeit Relative Feuchte Sichtweite
So, 15.09. 20:00 79% 45 km
So, 15.09. 14:00 53% 45 km
So, 15.09. 8:00 97% 10 km
So, 15.09. 2:00 95% 12 km
Sa, 14.09. 20:00 74% 55 km
Sa, 14.09. 14:00 54% 60 km
Sa, 14.09. 8:00 79% 45 km
Sa, 14.09. 2:00 95% 30 km
Ortszeit Relative Feuchte Sichtweite
So, 15.09. 22:00 92% 20 km
So, 15.09. 21:50 92% -
So, 15.09. 21:40 91% -
So, 15.09. 21:30 91% 30 km
So, 15.09. 21:20 91% -
So, 15.09. 21:10 89% -
So, 15.09. 21:00 88% 30 km
So, 15.09. 20:30 84% 40 km
So, 15.09. 20:00 79% 45 km
So, 15.09. 19:30 70% 55 km
So, 15.09. 19:00 56% 65 km
Ortszeit Niederschlagsmenge Niederschlagsart
So, 15.09. 20:00 0.0 l/m2 in 12 Std. -
So, 15.09. 14:00 0.0 l/m2 in 6 Std. -
So, 15.09. 8:00 0.0 l/m2 in 12 Std. -
So, 15.09. 2:00 0.0 l/m2 in 6 Std. -
Sa, 14.09. 20:00 0.0 l/m2 in 12 Std. -
Sa, 14.09. 14:00 0.0 l/m2 in 6 Std. -
Sa, 14.09. 8:00 0.0 l/m2 in 12 Std. -
Sa, 14.09. 2:00 0.0 l/m2 in 6 Std. -
Ortszeit Niederschlagsmenge Niederschlagsart
So, 15.09. 22:00 0.0 l/m2 in 1 Std. -
So, 15.09. 21:50 keine Meldung -
So, 15.09. 21:40 keine Meldung -
So, 15.09. 21:30 0.0 l/m2 in 1 Std. -
So, 15.09. 21:20 keine Meldung -
So, 15.09. 21:10 keine Meldung -
So, 15.09. 21:00 0.0 l/m2 in 1 Std. -
So, 15.09. 20:30 0.0 l/m2 in 1 Std. -
So, 15.09. 20:00 0.0 l/m2 in 1 Std. -
So, 15.09. 19:30 0.0 l/m2 in 1 Std. -
So, 15.09. 19:00 0.0 l/m2 in 1 Std. -
Ortszeit Stärke Spitze Richtung
km/h Bft. km/h Grad Sektor
So, 15.09. 20:00 4 1 25 320° NW
So, 15.09. 14:00 9 2 19 220° SW
So, 15.09. 8:00 4 1 7 190° S
So, 15.09. 2:00 4 1 14 140° SO
Sa, 14.09. 20:00 7 2 32 30° NO
Sa, 14.09. 14:00 4 1 22 210° SW
Sa, 14.09. 8:00 11 2 18 10° N
Sa, 14.09. 2:00 4 1 11 110° O
Ortszeit Stärke Spitze Richtung
km/h Bft. km/h Grad Sektor
So, 15.09. 22:00 2 1 6 250° W
So, 15.09. 21:50 2 1 - 250° W
So, 15.09. 21:40 2 1 - 220° SW
So, 15.09. 21:30 2 1 6 300° NW
So, 15.09. 21:20 2 1 - 300° NW
So, 15.09. 21:10 2 1 - 310° NW
So, 15.09. 21:00 4 1 7 340° N
So, 15.09. 20:30 4 1 7 310° NW
So, 15.09. 20:00 4 1 4 320° NW
So, 15.09. 19:30 4 1 4 320° NW
So, 15.09. 19:00 4 1 18 240° SW
Ortszeit Untergrenze Bedeckung Gattung
total tief tief mittel hoch
So, 15.09. 20:00 12000 m 6/8 0/8 - - -
So, 15.09. 14:00 - 0/8 0/8 - - -
So, 15.09. 8:00 - 0/8 0/8 - - -
So, 15.09. 2:00 810 m 5/8 5/8 - - -
Sa, 14.09. 20:00 - 0/8 0/8 - - -
Sa, 14.09. 14:00 1500 m 6/8 4/8 - - -
Sa, 14.09. 8:00 1080 m 7/8 7/8 - - -
Sa, 14.09. 2:00 1800 m 7/8 7/8 - - -
Ortszeit Bedeckungsgrad in Achtel und Wolkenuntergrenze
So, 15.09. 22:00 1(12000m)
So, 15.09. 21:50 1(12000m)
So, 15.09. 21:40 3(12000m)
So, 15.09. 21:30 7(12000m)
So, 15.09. 21:20 7(12000m)
So, 15.09. 21:10 8(12000m)
So, 15.09. 21:00 7(12000m)
So, 15.09. 20:30 2(12000m)
So, 15.09. 20:00 6(12000m)
So, 15.09. 19:30 1(12000m)
So, 15.09. 19:00 keine Wolken
Ortszeit Luftdruck NN (hPa) Tendenz (hPa in 3 Std.)
So, 15.09. 20:00 1022 - 0,6
So, 15.09. 14:00 1023 - 1,8
So, 15.09. 8:00 1028 - 0,7
So, 15.09. 2:00 1029 - 1,1
Sa, 14.09. 20:00 1029 + 0,1
Sa, 14.09. 14:00 1029 - 1,2
Sa, 14.09. 8:00 1032 + 0,5
Sa, 14.09. 2:00 1032 - 0,3
Ortszeit Luftdruck NN (hPa) Tendenz (hPa in 3 Std.)
So, 15.09. 22:00 1023 + 0,3
So, 15.09. 21:50 1023 keine Meldung
So, 15.09. 21:40 1022 keine Meldung
So, 15.09. 21:30 1022 + 0,1
So, 15.09. 21:20 1022 keine Meldung
So, 15.09. 21:10 1022 keine Meldung
So, 15.09. 21:00 1022 0,0
So, 15.09. 20:30 1022 - 0,1
So, 15.09. 20:00 1022 - 0,6
So, 15.09. 19:30 1021 - 0,8
So, 15.09. 19:00 1020 - 0,9
Ortszeit Schneehöhe (cm)
So, 15.09. 20:00 -
So, 15.09. 14:00 -
So, 15.09. 8:00 -
So, 15.09. 2:00 -
Sa, 14.09. 20:00 -
Sa, 14.09. 14:00 -
Sa, 14.09. 8:00 -
Sa, 14.09. 2:00 -
Ortszeit Schneehöhe (cm)
So, 15.09. 22:00 -
So, 15.09. 21:50 -
So, 15.09. 21:40 -
So, 15.09. 21:30 -
So, 15.09. 21:20 -
So, 15.09. 21:10 -
So, 15.09. 21:00 -
So, 15.09. 20:30 -
So, 15.09. 20:00 -
So, 15.09. 19:30 -
So, 15.09. 19:00 -
Link zu dieser Seite / Seite empfehlen

Das Wetter in ...